createdAt,value
2019-04-28T00:01:23.758Z,100.00
2019-04-28T00:03:53.119Z,100.00
2019-04-28T00:06:22.708Z,100.00
2019-04-28T00:08:52.043Z,100.00
2019-04-28T00:11:22.164Z,100.00
2019-04-28T00:13:53.518Z,100.00
2019-04-28T00:16:23.113Z,100.00
2019-04-28T00:18:52.535Z,100.00
2019-04-28T00:21:46.914Z,100.00
2019-04-28T00:24:44.065Z,100.00
2019-04-28T00:27:15.398Z,100.00
2019-04-28T00:29:46.266Z,100.00
2019-04-28T00:32:15.875Z,100.00
2019-04-28T00:34:45.388Z,100.00
2019-04-28T00:37:26.403Z,100.00
2019-04-28T00:39:55.762Z,100.00
2019-04-28T00:42:25.109Z,100.00
2019-04-28T00:44:54.463Z,100.00
2019-04-28T00:47:24.705Z,100.00
2019-04-28T00:49:54.118Z,100.00
2019-04-28T00:52:23.490Z,100.00
2019-04-28T00:54:53.123Z,100.00
2019-04-28T00:57:22.906Z,100.00
2019-04-28T00:59:57.946Z,100.00
2019-04-28T01:02:28.718Z,100.00
2019-04-28T01:04:58.051Z,100.00
2019-04-28T01:07:27.516Z,100.00
2019-04-28T01:09:56.848Z,100.00
2019-04-28T01:12:26.250Z,100.00
2019-04-28T01:14:57.980Z,100.00
2019-04-28T01:17:34.410Z,100.00
2019-04-28T01:20:05.829Z,100.00
2019-04-28T01:22:36.362Z,100.00
2019-04-28T01:25:06.775Z,100.00
2019-04-28T01:27:55.035Z,100.00
2019-04-28T01:30:44.032Z,98.83
2019-04-28T01:33:23.538Z,97.70
2019-04-28T01:35:52.918Z,98.46
2019-04-28T01:38:22.285Z,96.87
2019-04-28T01:40:51.597Z,96.56
2019-04-28T01:43:20.931Z,97.44
2019-04-28T01:45:50.367Z,97.27
2019-04-28T01:48:19.988Z,95.89
2019-04-28T01:50:49.981Z,96.32
2019-04-28T01:53:19.967Z,95.72
2019-04-28T01:55:49.609Z,96.74
2019-04-28T01:58:20.405Z,96.92
2019-04-28T02:00:50.617Z,96.39
2019-04-28T02:03:20.559Z,96.86
2019-04-28T02:05:50.254Z,95.98
2019-04-28T02:08:20.283Z,96.90
2019-04-28T02:10:50.225Z,97.68
2019-04-28T02:13:19.997Z,97.45
2019-04-28T02:15:50.096Z,97.72
2019-04-28T02:18:20.028Z,97.83
2019-04-28T02:20:55.044Z,97.90
2019-04-28T02:23:29.847Z,98.34
2019-04-28T02:25:59.766Z,99.29
2019-04-28T02:28:29.633Z,98.28
2019-04-28T02:31:02.107Z,97.89
2019-04-28T02:33:31.265Z,96.92
2019-04-28T02:36:01.582Z,98.22
2019-04-28T02:38:34.347Z,100.00
2019-04-28T02:41:03.197Z,99.72
2019-04-28T02:43:32.725Z,100.00
2019-04-28T02:46:02.300Z,100.00
2019-04-28T02:48:31.603Z,100.00
2019-04-28T02:51:10.988Z,99.21
2019-04-28T02:53:45.406Z,99.91
2019-04-28T02:56:14.782Z,99.33
2019-04-28T02:58:44.105Z,99.11
2019-04-28T03:01:25.041Z,99.86
2019-04-28T03:03:44.530Z,99.67
2019-04-28T03:06:13.920Z,96.17
2019-04-28T03:08:43.259Z,94.95
2019-04-28T03:11:12.587Z,95.39
2019-04-28T03:13:41.977Z,95.46
2019-04-28T03:16:11.287Z,94.10
2019-04-28T03:18:41.332Z,95.11
2019-04-28T03:21:11.543Z,94.86
2019-04-28T03:23:41.028Z,95.11
2019-04-28T03:26:47.746Z,95.33
2019-04-28T03:29:41.867Z,96.35
2019-04-28T03:32:32.631Z,96.82
2019-04-28T03:34:53.169Z,97.26
2019-04-28T03:37:21.563Z,97.72
2019-04-28T03:39:51.245Z,98.41
2019-04-28T03:42:21.538Z,98.34
2019-04-28T03:44:51.518Z,99.11
2019-04-28T03:47:21.523Z,100.00
2019-04-28T03:49:51.106Z,100.00
2019-04-28T03:52:21.455Z,100.00
2019-04-28T03:54:51.368Z,100.00
2019-04-28T03:57:21.809Z,100.00
2019-04-28T03:59:51.633Z,100.00
2019-04-28T04:02:23.620Z,100.00
2019-04-28T04:04:52.993Z,100.00
2019-04-28T04:07:22.427Z,100.00
2019-04-28T04:10:16.889Z,100.00
2019-04-28T04:13:00.895Z,100.00
2019-04-28T04:15:55.366Z,100.00
2019-04-28T04:18:40.722Z,100.00
2019-04-28T04:21:11.237Z,100.00
2019-04-28T04:23:41.071Z,100.00
2019-04-28T04:26:11.673Z,100.00
2019-04-28T04:28:41.779Z,100.00
2019-04-28T04:31:11.396Z,100.00
2019-04-28T04:33:41.255Z,100.00
2019-04-28T04:36:11.935Z,100.00
2019-04-28T04:38:45.975Z,100.00
2019-04-28T04:41:12.642Z,100.00
2019-04-28T04:43:42.017Z,100.00
2019-04-28T04:46:21.919Z,100.00
2019-04-28T04:48:51.353Z,100.00
2019-04-28T04:51:21.495Z,98.81
2019-04-28T04:53:51.629Z,97.25
2019-04-28T04:56:21.680Z,97.57
2019-04-28T04:58:51.332Z,96.72
2019-04-28T05:01:40.480Z,96.72
2019-04-28T05:04:15.836Z,97.52
2019-04-28T05:06:45.202Z,96.30
2019-04-28T05:09:14.901Z,96.88
2019-04-28T05:11:44.272Z,94.42
2019-04-28T05:14:13.609Z,95.58
2019-04-28T05:16:42.962Z,93.90
2019-04-28T05:19:12.798Z,95.77
2019-04-28T05:21:42.197Z,95.51
2019-04-28T05:24:46.361Z,94.33
2019-04-28T05:27:17.352Z,90.61
2019-04-28T05:29:45.058Z,90.34
2019-04-28T05:32:14.406Z,90.40
2019-04-28T05:34:46.851Z,88.84
2019-04-28T05:37:14.902Z,88.58
2019-04-28T05:39:44.255Z,89.70
2019-04-28T05:42:13.629Z,91.22
2019-04-28T05:44:43.008Z,88.99
2019-04-28T05:47:12.357Z,90.52
2019-04-28T05:50:12.722Z,90.20
2019-04-28T05:53:00.976Z,88.91
2019-04-28T05:55:50.743Z,90.20
2019-04-28T05:58:25.352Z,87.01
2019-04-28T06:01:11.789Z,87.97
2019-04-28T06:03:41.705Z,86.19
2019-04-28T06:06:11.097Z,87.26
2019-04-28T06:09:04.914Z,86.93
2019-04-28T06:11:35.605Z,88.18
2019-04-28T06:14:05.092Z,88.34
2019-04-28T06:16:34.666Z,88.02
2019-04-28T06:19:04.203Z,87.89
2019-04-28T06:21:33.558Z,88.00
2019-04-28T06:24:03.163Z,87.38
2019-04-28T06:26:32.853Z,87.23
2019-04-28T06:29:02.199Z,86.75
2019-04-28T06:31:31.565Z,85.83
2019-04-28T06:34:00.952Z,86.27
2019-04-28T06:36:30.332Z,85.71
2019-04-28T06:39:01.218Z,85.48
2019-04-28T06:41:30.519Z,83.66
2019-04-28T06:44:00.269Z,84.23
2019-04-28T06:46:29.631Z,83.54
2019-04-28T06:48:58.982Z,82.14
2019-04-28T06:51:29.489Z,83.91
2019-04-28T06:53:59.328Z,85.56
2019-04-28T06:56:28.740Z,82.77
2019-04-28T06:58:59.135Z,80.90
2019-04-28T07:01:28.861Z,79.14
2019-04-28T07:03:58.226Z,78.25
2019-04-28T07:06:27.668Z,78.06
2019-04-28T07:08:57.068Z,77.62
2019-04-28T07:11:26.454Z,78.40
2019-04-28T07:13:55.843Z,79.34
2019-04-28T07:16:25.193Z,78.29
2019-04-28T07:18:54.543Z,76.61
2019-04-28T07:21:52.244Z,77.15
2019-04-28T07:24:21.698Z,75.07
2019-04-28T07:26:51.049Z,74.93
2019-04-28T07:29:20.420Z,74.31
2019-04-28T07:31:49.784Z,74.50
2019-04-28T07:34:19.392Z,72.88
2019-04-28T07:36:48.767Z,75.63
2019-04-28T07:39:18.143Z,75.80
2019-04-28T07:41:47.490Z,73.64
2019-04-28T07:44:16.833Z,74.94
2019-04-28T07:46:46.208Z,75.63
2019-04-28T07:49:15.601Z,75.17
2019-04-28T07:51:55.390Z,74.92
2019-04-28T07:54:24.748Z,74.34
2019-04-28T07:56:54.124Z,69.95
2019-04-28T07:59:23.482Z,69.74
2019-04-28T08:01:52.872Z,70.37
2019-04-28T08:04:22.331Z,72.28
2019-04-28T08:06:51.697Z,71.37
2019-04-28T08:09:21.166Z,71.37
2019-04-28T08:11:50.556Z,72.37
2019-04-28T08:14:20.094Z,72.27
2019-04-28T08:16:49.461Z,70.83
2019-04-28T08:19:21.670Z,69.68
2019-04-28T08:21:51.030Z,68.30
2019-04-28T08:24:20.428Z,67.48
2019-04-28T08:26:49.794Z,67.22
2019-04-28T08:29:19.146Z,67.83
2019-04-28T08:32:07.440Z,67.32
2019-04-28T08:34:36.810Z,69.53
2019-04-28T08:37:06.329Z,64.06
2019-04-28T08:39:35.748Z,62.35
2019-04-28T08:42:05.106Z,63.08
2019-04-28T08:44:34.462Z,64.19
2019-04-28T08:47:03.839Z,63.87
2019-04-28T08:49:33.193Z,62.23
2019-04-28T08:52:02.515Z,62.60
2019-04-28T08:54:33.431Z,64.97
2019-04-28T08:57:02.809Z,62.87
2019-04-28T08:59:32.173Z,62.70
2019-04-28T09:02:01.549Z,62.70
2019-04-28T09:04:31.323Z,61.58
2019-04-28T09:07:00.691Z,63.09
2019-04-28T09:09:30.174Z,57.21
2019-04-28T09:11:59.587Z,60.59
2019-04-28T09:14:28.924Z,58.45
2019-04-28T09:16:58.309Z,55.72
2019-04-28T09:19:27.663Z,59.47
2019-04-28T09:21:57.041Z,58.69
2019-04-28T09:24:26.376Z,58.45
2019-04-28T09:26:55.744Z,60.18
2019-04-28T09:29:25.158Z,60.31
2019-04-28T09:31:54.489Z,60.55
2019-04-28T09:34:28.414Z,61.35
2019-04-28T09:36:54.939Z,58.37
2019-04-28T09:39:42.371Z,60.41
2019-04-28T09:42:29.566Z,60.23
2019-04-28T09:45:01.256Z,59.76
2019-04-28T09:47:30.403Z,59.42
2019-04-28T09:49:59.918Z,57.49
2019-04-28T09:52:29.255Z,57.57
2019-04-28T09:54:58.613Z,57.46
2019-04-28T09:57:27.965Z,58.61
2019-04-28T09:59:57.902Z,58.42
2019-04-28T10:02:27.269Z,58.42
2019-04-28T10:04:56.650Z,59.58
2019-04-28T10:07:26.000Z,58.27
2019-04-28T10:09:55.348Z,59.45
2019-04-28T10:12:27.179Z,61.05
2019-04-28T10:14:55.829Z,60.33
2019-04-28T10:19:52.546Z,57.17
2019-04-28T10:22:21.906Z,55.31
2019-04-28T10:24:51.279Z,55.13
2019-04-28T10:27:20.639Z,55.24
2019-04-28T10:29:50.012Z,55.60
2019-04-28T10:32:19.361Z,55.57
2019-04-28T10:34:54.999Z,56.56
2019-04-28T10:37:19.867Z,54.12
2019-04-28T10:39:59.272Z,54.60
2019-04-28T10:42:28.689Z,54.30
2019-04-28T10:44:58.524Z,54.47
2019-04-28T10:47:28.609Z,55.60
2019-04-28T10:49:57.962Z,53.79
2019-04-28T10:52:27.331Z,52.68
2019-04-28T10:54:56.687Z,51.44
2019-04-28T10:57:26.063Z,50.85
2019-04-28T10:59:55.796Z,51.48
2019-04-28T11:02:25.183Z,53.43
2019-04-28T11:05:08.098Z,54.00
2019-04-28T11:07:32.302Z,53.99
2019-04-28T11:10:08.545Z,54.12
2019-04-28T11:12:38.015Z,55.14
2019-04-28T11:15:09.912Z,54.20
2019-04-28T11:17:39.265Z,54.82
2019-04-28T11:20:08.780Z,53.61
2019-04-28T11:22:38.234Z,53.49
2019-04-28T11:25:07.723Z,50.96
2019-04-28T11:27:37.088Z,49.22
2019-04-28T11:30:06.699Z,48.37
2019-04-28T11:32:36.995Z,49.53
2019-04-28T11:35:32.325Z,50.36
2019-04-28T11:38:01.773Z,49.92
2019-04-28T11:40:31.273Z,50.19
2019-04-28T11:43:00.637Z,49.49
2019-04-28T11:45:30.023Z,49.13
2019-04-28T11:47:59.450Z,49.36
2019-04-28T11:50:28.837Z,49.98
2019-04-28T11:52:58.203Z,49.55
2019-04-28T11:55:27.540Z,49.38
2019-04-28T11:57:56.901Z,46.62
2019-04-28T12:00:30.380Z,46.10
2019-04-28T12:02:59.745Z,46.07
2019-04-28T12:05:38.566Z,46.24
2019-04-28T12:08:07.956Z,43.52
2019-04-28T12:10:42.463Z,42.11
2019-04-28T12:13:29.431Z,41.06
2019-04-28T12:16:16.759Z,40.25
2019-04-28T12:19:01.567Z,42.55
2019-04-28T12:21:30.939Z,43.46
2019-04-28T12:24:00.304Z,41.89
2019-04-28T12:26:29.669Z,39.15
2019-04-28T12:29:00.824Z,38.72
2019-04-28T12:31:30.115Z,39.24
2019-04-28T12:33:59.511Z,40.06
2019-04-28T12:36:28.908Z,39.17
2019-04-28T12:38:58.303Z,38.67
2019-04-28T12:41:27.638Z,37.59
2019-04-28T12:43:57.011Z,38.69
2019-04-28T12:46:26.367Z,40.70
2019-04-28T12:48:58.880Z,40.81
2019-04-28T12:51:28.239Z,41.47
2019-04-28T12:54:01.017Z,43.14
2019-04-28T12:56:30.368Z,42.88
2019-04-28T12:59:05.212Z,41.59
2019-04-28T13:01:41.477Z,41.55
2019-04-28T13:04:36.171Z,40.92
2019-04-28T13:07:07.673Z,40.25
2019-04-28T13:09:37.020Z,39.96
2019-04-28T13:12:06.686Z,41.01
2019-04-28T13:14:36.127Z,39.86
2019-04-28T13:17:05.563Z,41.08
2019-04-28T13:19:34.934Z,41.18
2019-04-28T13:22:05.658Z,39.85
2019-04-28T13:24:35.113Z,40.10
2019-04-28T13:27:04.567Z,39.16
2019-04-28T13:29:33.916Z,39.31
2019-04-28T13:32:03.293Z,37.93
2019-04-28T13:34:34.265Z,36.80
2019-04-28T13:37:03.656Z,36.73
2019-04-28T13:39:51.949Z,36.81
2019-04-28T13:42:21.261Z,37.70
2019-04-28T13:44:58.120Z,38.71
2019-04-28T13:47:27.495Z,40.52
2019-04-28T13:50:01.653Z,38.96
2019-04-28T13:52:31.060Z,40.12
2019-04-28T13:55:08.866Z,41.24
2019-04-28T13:57:38.195Z,39.81
2019-04-28T14:00:09.797Z,37.30
2019-04-28T14:03:01.115Z,37.07
2019-04-28T14:05:44.356Z,37.88
2019-04-28T14:08:13.732Z,38.15
2019-04-28T14:10:43.062Z,37.57
2019-04-28T14:13:12.434Z,36.86
2019-04-28T14:15:41.848Z,36.36
2019-04-28T14:18:11.335Z,35.99
2019-04-28T14:20:40.688Z,34.95
2019-04-28T14:23:10.134Z,33.93
2019-04-28T14:25:39.513Z,34.61
2019-04-28T14:28:08.879Z,33.28
2019-04-28T14:30:38.221Z,33.75
2019-04-28T14:33:07.583Z,34.28
2019-04-28T14:35:36.961Z,34.59
2019-04-28T14:38:06.298Z,35.23
2019-04-28T14:40:35.752Z,34.10
2019-04-28T14:43:05.161Z,34.21
2019-04-28T14:45:34.538Z,34.09
2019-04-28T14:48:03.911Z,33.23
2019-04-28T14:50:33.603Z,33.58
2019-04-28T14:53:02.977Z,33.22
2019-04-28T14:55:32.489Z,32.79
2019-04-28T14:58:01.924Z,32.11
2019-04-28T15:00:36.415Z,32.79
2019-04-28T15:03:08.679Z,32.76
2019-04-28T15:06:09.462Z,34.26
2019-04-28T15:08:59.428Z,34.52
2019-04-28T15:11:35.506Z,34.26
2019-04-28T15:14:05.015Z,34.38
2019-04-28T15:16:34.420Z,34.53
2019-04-28T15:19:03.909Z,33.15
2019-04-28T15:21:33.365Z,34.62
2019-04-28T15:24:02.745Z,34.65
2019-04-28T15:26:32.093Z,35.17
2019-04-28T15:29:01.453Z,35.22
2019-04-28T15:31:30.816Z,35.51
2019-04-28T15:36:28.366Z,34.66
2019-04-28T15:38:57.713Z,35.13
2019-04-28T15:41:27.146Z,34.50
2019-04-28T15:43:56.481Z,35.09
2019-04-28T15:46:25.860Z,35.05
2019-04-28T15:48:55.223Z,34.52
2019-04-28T15:51:25.721Z,34.65
2019-04-28T15:53:55.038Z,33.40
2019-04-28T15:56:30.811Z,32.86
2019-04-28T15:59:00.263Z,34.27
2019-04-28T16:01:29.606Z,33.84
2019-04-28T16:03:59.012Z,33.67
2019-04-28T16:06:28.379Z,34.02
2019-04-28T16:08:57.756Z,34.13
2019-04-28T16:11:28.972Z,35.17
2019-04-28T16:13:58.241Z,35.36
2019-04-28T16:16:27.605Z,35.38
2019-04-28T16:18:57.031Z,35.16
2019-04-28T16:21:26.379Z,36.39
2019-04-28T16:23:55.766Z,36.04
2019-04-28T16:26:25.160Z,36.42
2019-04-28T16:28:54.484Z,36.60
2019-04-28T16:31:25.469Z,36.90
2019-04-28T16:33:54.831Z,35.77
2019-04-28T16:36:24.167Z,36.14
2019-04-28T16:38:53.546Z,35.73
2019-04-28T16:41:33.122Z,36.76
2019-04-28T16:44:06.687Z,37.23
2019-04-28T16:46:36.049Z,36.56
2019-04-28T16:49:05.449Z,35.46
2019-04-28T16:51:34.791Z,36.09
2019-04-28T16:54:04.151Z,36.47
2019-04-28T16:56:42.488Z,37.05
2019-04-28T16:59:27.044Z,37.54
2019-04-28T17:02:02.828Z,39.03
2019-04-28T17:04:32.249Z,38.84
2019-04-28T17:07:01.653Z,39.19
2019-04-28T17:09:30.945Z,39.10
2019-04-28T17:12:00.309Z,39.49
2019-04-28T17:14:29.680Z,40.08
2019-04-28T17:16:59.032Z,40.43
2019-04-28T17:19:28.443Z,39.84
2019-04-28T17:21:57.929Z,41.37
2019-04-28T17:24:27.305Z,41.23
2019-04-28T17:26:56.684Z,40.92
2019-04-28T17:29:26.083Z,41.39
2019-04-28T17:31:55.525Z,43.26
2019-04-28T17:34:33.757Z,43.97
2019-04-28T17:37:04.203Z,44.89
2019-04-28T17:39:34.056Z,42.85
2019-04-28T17:42:03.605Z,43.49
2019-04-28T17:44:32.985Z,45.96
2019-04-28T17:47:02.332Z,44.01
2019-04-28T17:49:38.407Z,44.23
2019-04-28T17:52:09.226Z,44.92
2019-04-28T17:54:38.621Z,46.01
2019-04-28T17:57:08.088Z,46.32
2019-04-28T17:59:37.615Z,46.68
2019-04-28T18:02:32.237Z,47.84
2019-04-28T18:05:36.006Z,48.24
2019-04-28T18:08:20.093Z,49.23
2019-04-28T18:10:37.810Z,49.72
2019-04-28T18:13:07.268Z,50.04
2019-04-28T18:15:54.687Z,50.43
2019-04-28T18:18:34.148Z,50.26
2019-04-28T18:21:03.554Z,50.26
2019-04-28T18:23:33.044Z,50.92
2019-04-28T18:26:02.399Z,50.99
2019-04-28T18:28:31.756Z,51.34
2019-04-28T18:31:20.029Z,51.43
2019-04-28T18:34:08.310Z,50.96
2019-04-28T18:36:47.777Z,50.71
2019-04-28T18:39:25.967Z,51.05
2019-04-28T18:42:05.589Z,50.97
2019-04-28T18:44:34.947Z,55.04
2019-04-28T18:47:04.609Z,55.04
2019-04-28T18:49:34.011Z,55.62
2019-04-28T18:52:03.392Z,56.34
2019-04-28T18:54:32.826Z,56.16
2019-04-28T18:57:02.286Z,56.02
2019-04-28T18:59:31.767Z,54.43
2019-04-28T19:02:11.613Z,55.72
2019-04-28T19:04:41.007Z,56.77
2019-04-28T19:07:12.500Z,57.56
2019-04-28T19:09:51.560Z,58.00
2019-04-28T19:12:24.686Z,58.98
2019-04-28T19:15:11.893Z,59.71
2019-04-28T19:17:47.429Z,60.29
2019-04-28T19:20:16.836Z,59.87
2019-04-28T19:22:47.088Z,59.11
2019-04-28T19:25:16.471Z,58.70
2019-04-28T19:27:46.035Z,58.92
2019-04-28T19:30:15.631Z,59.01
2019-04-28T19:32:45.141Z,59.41
2019-04-28T19:35:14.602Z,58.52
2019-04-28T19:37:44.046Z,58.96
2019-04-28T19:40:13.624Z,58.87
2019-04-28T19:42:43.000Z,58.99
2019-04-28T19:45:14.298Z,60.68
2019-04-28T19:47:43.875Z,61.96
2019-04-28T19:50:13.588Z,61.90
2019-04-28T19:52:43.057Z,62.28
2019-04-28T19:55:19.980Z,62.28
2019-04-28T19:58:08.347Z,60.87
2019-04-28T20:00:48.970Z,61.37
2019-04-28T20:03:18.415Z,62.22
2019-04-28T20:05:47.811Z,62.97
2019-04-28T20:08:17.375Z,62.37
2019-04-28T20:10:46.915Z,62.63
2019-04-28T20:13:16.419Z,63.28
2019-04-28T20:15:45.874Z,64.01
2019-04-28T20:18:15.388Z,64.06
2019-04-28T20:20:44.793Z,65.46
2019-04-28T20:23:14.177Z,67.28
2019-04-28T20:25:43.665Z,66.90
2019-04-28T20:28:13.109Z,67.46
2019-04-28T20:30:42.507Z,69.20
2019-04-28T20:33:11.942Z,69.87
2019-04-28T20:35:46.685Z,70.12
2019-04-28T20:38:22.675Z,70.94
2019-04-28T20:41:03.560Z,66.94
2019-04-28T20:43:34.715Z,69.40
2019-04-28T20:46:04.250Z,64.49
2019-04-28T20:48:33.644Z,64.76
2019-04-28T20:51:03.122Z,63.43
2019-04-28T20:53:32.501Z,62.62
2019-04-28T20:56:01.844Z,62.99
2019-04-28T20:58:31.300Z,63.13
2019-04-28T21:01:00.755Z,64.92
2019-04-28T21:03:30.165Z,64.36
2019-04-28T21:05:59.555Z,66.78
2019-04-28T21:08:29.006Z,68.07
2019-04-28T21:10:58.399Z,64.23
2019-04-28T21:13:27.894Z,66.05
2019-04-28T21:15:57.276Z,68.54
2019-04-28T21:18:26.729Z,67.46
2019-04-28T21:20:57.117Z,66.60
2019-04-28T21:23:26.537Z,69.67
2019-04-28T21:25:55.939Z,69.88
2019-04-28T21:28:25.479Z,69.47
2019-04-28T21:30:54.897Z,69.36
2019-04-28T21:33:24.293Z,67.26
2019-04-28T21:35:53.674Z,67.25
2019-04-28T21:38:23.117Z,66.90
2019-04-28T21:40:54.352Z,69.09
2019-04-28T21:43:32.438Z,69.20
2019-04-28T21:46:20.713Z,70.13
2019-04-28T21:48:57.080Z,71.59
2019-04-28T21:51:27.307Z,71.28
2019-04-28T21:53:56.742Z,70.79
2019-04-28T21:56:26.127Z,71.43
2019-04-28T21:58:55.509Z,73.25
2019-04-28T22:01:25.354Z,73.51
2019-04-28T22:03:54.744Z,68.86
2019-04-28T22:06:24.112Z,72.71
2019-04-28T22:08:53.463Z,73.42
2019-04-28T22:11:22.807Z,73.61
2019-04-28T22:13:52.192Z,74.79
2019-04-28T22:16:21.543Z,76.33
2019-04-28T22:18:50.892Z,76.38
2019-04-28T22:21:20.254Z,75.91
2019-04-28T22:24:08.519Z,75.94
2019-04-28T22:26:48.595Z,76.16
2019-04-28T22:29:17.976Z,77.46
2019-04-28T22:31:47.338Z,77.54
2019-04-28T22:34:16.927Z,77.12
2019-04-28T22:36:47.232Z,77.88
2019-04-28T22:39:16.780Z,77.59
2019-04-28T22:41:46.112Z,77.61
2019-04-28T22:44:15.481Z,76.67
2019-04-28T22:46:44.840Z,77.12
2019-04-28T22:49:14.433Z,78.13
2019-04-28T22:51:43.813Z,77.63
2019-04-28T22:54:18.863Z,78.05
2019-04-28T22:56:54.665Z,78.37
2019-04-28T22:59:28.087Z,77.97
2019-04-28T23:02:01.627Z,78.20
2019-04-28T23:04:35.854Z,78.47
2019-04-28T23:07:05.376Z,78.28
2019-04-28T23:09:34.768Z,78.14
2019-04-28T23:12:05.317Z,78.18
2019-04-28T23:14:34.891Z,78.24
2019-04-28T23:17:06.010Z,79.46
2019-04-28T23:19:37.473Z,79.32
2019-04-28T23:22:15.786Z,79.78
2019-04-28T23:24:54.365Z,79.86
2019-04-28T23:27:23.895Z,79.78
2019-04-28T23:29:53.272Z,80.43
2019-04-28T23:32:22.703Z,80.96
2019-04-28T23:34:52.195Z,81.16
2019-04-28T23:37:21.575Z,80.41
2019-04-28T23:39:51.014Z,81.17
2019-04-28T23:42:29.145Z,81.82
2019-04-28T23:44:58.540Z,81.57
2019-04-28T23:47:27.909Z,81.71
2019-04-28T23:49:57.646Z,81.88
2019-04-28T23:52:54.704Z,82.46
2019-04-28T23:55:25.513Z,81.48
2019-04-28T23:57:54.872Z,81.38
